sensor_id;sensor_type;location;lat;lon;timestamp;pressure;altitude;pressure_sealevel;temperature;humidity
26531;BME280;14201;43.188;24.160;2023-06-26T00:02:13;99289.72;;;21.89;100.00
26531;BME280;14201;43.188;24.160;2023-06-26T00:04:39;99284.41;;;21.89;100.00
26531;BME280;14201;43.188;24.160;2023-06-26T00:07:05;99298.38;;;22.07;100.00
26531;BME280;14201;43.188;24.160;2023-06-26T00:09:30;99298.28;;;22.16;100.00
26531;BME280;14201;43.188;24.160;2023-06-26T00:11:56;99288.44;;;22.29;100.00
26531;BME280;14201;43.188;24.160;2023-06-26T00:14:21;99296.25;;;22.42;100.00
26531;BME280;14201;43.188;24.160;2023-06-26T00:16:47;99297.00;;;22.52;100.00
26531;BME280;14201;43.188;24.160;2023-06-26T00:19:15;99290.81;;;22.53;99.69
26531;BME280;14201;43.188;24.160;2023-06-26T00:21:41;99295.13;;;22.64;98.60
26531;BME280;14201;43.188;24.160;2023-06-26T00:24:12;99290.63;;;22.70;98.25
26531;BME280;14201;43.188;24.160;2023-06-26T00:26:38;99285.25;;;22.73;98.90
26531;BME280;14201;43.188;24.160;2023-06-26T00:29:04;99290.47;;;22.79;99.26
26531;BME280;14201;43.188;24.160;2023-06-26T00:31:30;99283.38;;;22.81;99.40
26531;BME280;14201;43.188;24.160;2023-06-26T00:33:56;99288.75;;;22.78;99.88
26531;BME280;14201;43.188;24.160;2023-06-26T00:36:21;99270.19;;;22.74;99.01
26531;BME280;14201;43.188;24.160;2023-06-26T00:38:51;99285.06;;;22.89;98.62
26531;BME280;14201;43.188;24.160;2023-06-26T00:41:16;99284.97;;;22.95;97.72
26531;BME280;14201;43.188;24.160;2023-06-26T00:43:42;99279.63;;;22.96;97.86
26531;BME280;14201;43.188;24.160;2023-06-26T00:46:10;99288.53;;;22.94;98.34
26531;BME280;14201;43.188;24.160;2023-06-26T00:48:37;99281.34;;;22.99;97.91
26531;BME280;14201;43.188;24.160;2023-06-26T00:51:04;99269.09;;;22.92;97.61
26531;BME280;14201;43.188;24.160;2023-06-26T00:53:33;99285.06;;;22.89;98.14
26531;BME280;14201;43.188;24.160;2023-06-26T00:56:00;99271.94;;;22.78;98.52
26531;BME280;14201;43.188;24.160;2023-06-26T00:58:26;99271.00;;;22.80;97.88
26531;BME280;14201;43.188;24.160;2023-06-26T01:00:52;99275.34;;;22.88;97.64
26531;BME280;14201;43.188;24.160;2023-06-26T01:03:27;99271.66;;;22.96;96.29
26531;BME280;14201;43.188;24.160;2023-06-26T01:05:56;99277.81;;;23.00;96.58
26531;BME280;14201;43.188;24.160;2023-06-26T01:08:24;99269.94;;;22.94;96.23
26531;BME280;14201;43.188;24.160;2023-06-26T01:10:50;99264.63;;;22.94;96.74
26531;BME280;14201;43.188;24.160;2023-06-26T01:13:17;99268.94;;;23.01;96.28
26531;BME280;14201;43.188;24.160;2023-06-26T01:15:42;99261.13;;;22.90;97.11
26531;BME280;14201;43.188;24.160;2023-06-26T01:18:08;99271.69;;;22.95;96.64
26531;BME280;14201;43.188;24.160;2023-06-26T01:20:38;99266.28;;;23.03;97.40
26531;BME280;14201;43.188;24.160;2023-06-26T01:23:18;99253.16;;;22.92;98.74
26531;BME280;14201;43.188;24.160;2023-06-26T01:25:56;99263.69;;;22.96;98.11
26531;BME280;14201;43.188;24.160;2023-06-26T01:28:27;99270.78;;;22.96;98.88
26531;BME280;14201;43.188;24.160;2023-06-26T01:30:53;99268.91;;;23.07;97.67
26531;BME280;14201;43.188;24.160;2023-06-26T01:33:20;99258.28;;;23.06;95.65
26531;BME280;14201;43.188;24.160;2023-06-26T01:35:45;99257.34;;;23.08;96.11
26531;BME280;14201;43.188;24.160;2023-06-26T01:38:19;99262.72;;;23.05;96.95
26531;BME280;14201;43.188;24.160;2023-06-26T01:40:46;99266.19;;;23.09;96.20
26531;BME280;14201;43.188;24.160;2023-06-26T01:46:22;99253.91;;;23.00;97.37
26531;BME280;14201;43.188;24.160;2023-06-26T01:49:12;99256.50;;;23.06;96.85
26531;BME280;14201;43.188;24.160;2023-06-26T01:51:40;99257.44;;;22.99;96.61
26531;BME280;14201;43.188;24.160;2023-06-26T01:54:17;99253.91;;;23.00;96.44
26531;BME280;14201;43.188;24.160;2023-06-26T01:56:45;99247.75;;;22.98;95.50
26531;BME280;14201;43.188;24.160;2023-06-26T01:59:11;99260.28;;;22.87;93.81
26531;BME280;14201;43.188;24.160;2023-06-26T02:01:39;99255.47;;;22.50;96.22
26531;BME280;14201;43.188;24.160;2023-06-26T02:04:05;99253.00;;;22.36;97.37
26531;BME280;14201;43.188;24.160;2023-06-26T02:06:31;99252.91;;;22.44;96.88
26531;BME280;14201;43.188;24.160;2023-06-26T02:08:56;99243.97;;;22.49;96.43
26531;BME280;14201;43.188;24.160;2023-06-26T02:11:22;99243.06;;;22.49;97.31
26531;BME280;14201;43.188;24.160;2023-06-26T02:13:48;99247.53;;;22.47;97.75
26531;BME280;14201;43.188;24.160;2023-06-26T02:16:14;99246.66;;;22.45;98.43
26531;BME280;14201;43.188;24.160;2023-06-26T02:18:39;99241.31;;;22.51;98.32
26531;BME280;14201;43.188;24.160;2023-06-26T02:21:06;99240.31;;;22.56;97.95
26531;BME280;14201;43.188;24.160;2023-06-26T02:23:32;99235.09;;;22.52;97.94
26531;BME280;14201;43.188;24.160;2023-06-26T02:25:58;99236.81;;;22.54;98.67
26531;BME280;14201;43.188;24.160;2023-06-26T02:28:23;99216.59;;;22.46;98.77
26531;BME280;14201;43.188;24.160;2023-06-26T02:30:49;99237.63;;;22.61;97.71
26531;BME280;14201;43.188;24.160;2023-06-26T02:33:14;99239.44;;;22.59;97.81
26531;BME280;14201;43.188;24.160;2023-06-26T02:35:40;99245.53;;;22.66;96.45
26531;BME280;14201;43.188;24.160;2023-06-26T02:38:06;99241.09;;;22.66;96.87
26531;BME280;14201;43.188;24.160;2023-06-26T02:40:31;99243.91;;;22.55;96.77
26531;BME280;14201;43.188;24.160;2023-06-26T02:42:58;99244.75;;;22.59;96.20
26531;BME280;14201;43.188;24.160;2023-06-26T02:45:24;99238.44;;;22.66;96.45
26531;BME280;14201;43.188;24.160;2023-06-26T02:47:49;99243.78;;;22.65;96.23
26531;BME280;14201;43.188;24.160;2023-06-26T02:50:15;99239.34;;;22.65;97.41
26531;BME280;14201;43.188;24.160;2023-06-26T02:52:41;99244.75;;;22.59;98.90
26531;BME280;14201;43.188;24.160;2023-06-26T02:55:06;99244.66;;;22.65;98.08
26531;BME280;14201;43.188;24.160;2023-06-26T02:57:32;99249.88;;;22.71;96.31
26531;BME280;14201;43.188;24.160;2023-06-26T02:59:58;99248.13;;;22.70;96.80
26531;BME280;14201;43.188;24.160;2023-06-26T03:02:23;99251.69;;;22.69;96.27
26531;BME280;14201;43.188;24.160;2023-06-26T03:04:50;99260.50;;;22.71;94.45
26531;BME280;14201;43.188;24.160;2023-06-26T03:07:16;99258.72;;;22.72;93.25
26531;BME280;14201;43.188;24.160;2023-06-26T03:09:42;99252.44;;;22.76;93.65
26531;BME280;14201;43.188;24.160;2023-06-26T03:12:08;99254.31;;;22.72;92.46
26531;BME280;14201;43.188;24.160;2023-06-26T03:14:34;99256.13;;;22.69;92.61
26531;BME280;14201;43.188;24.160;2023-06-26T03:17:00;99253.50;;;22.64;93.60
26531;BME280;14201;43.188;24.160;2023-06-26T03:19:28;99254.31;;;22.69;93.20
26531;BME280;14201;43.188;24.160;2023-06-26T03:21:54;99256.13;;;22.69;93.11
26531;BME280;14201;43.188;24.160;2023-06-26T03:24:20;99257.91;;;22.68;93.37
26531;BME280;14201;43.188;24.160;2023-06-26T03:26:46;99257.06;;;22.63;94.20
26531;BME280;14201;43.188;24.160;2023-06-26T03:29:11;99260.59;;;22.62;95.06
26531;BME280;14201;43.188;24.160;2023-06-26T03:31:37;99265.13;;;22.57;95.34
26531;BME280;14201;43.188;24.160;2023-06-26T03:34:03;99266.00;;;22.57;94.75
26531;BME280;14201;43.188;24.160;2023-06-26T03:36:28;99262.38;;;22.63;94.95
26531;BME280;14201;43.188;24.160;2023-06-26T03:38:54;99264.22;;;22.58;95.47
26531;BME280;14201;43.188;24.160;2023-06-26T03:41:22;99260.69;;;22.56;96.26
26531;BME280;14201;43.188;24.160;2023-06-26T03:43:48;99263.34;;;22.54;95.90
26531;BME280;14201;43.188;24.160;2023-06-26T03:46:14;99268.66;;;22.56;96.69
26531;BME280;14201;43.188;24.160;2023-06-26T03:48:40;99264.13;;;22.64;96.26
26531;BME280;14201;43.188;24.160;2023-06-26T03:51:06;99263.34;;;22.56;96.13
26531;BME280;14201;43.188;24.160;2023-06-26T03:53:33;99265.91;;;22.62;95.57
26531;BME280;14201;43.188;24.160;2023-06-26T03:55:59;99260.59;;;22.65;94.74
26531;BME280;14201;43.188;24.160;2023-06-26T03:58:24;99269.44;;;22.64;95.16
26531;BME280;14201;43.188;24.160;2023-06-26T04:00:50;99271.19;;;22.67;95.07
26531;BME280;14201;43.188;24.160;2023-06-26T04:03:16;99263.22;;;22.67;94.83
26531;BME280;14201;43.188;24.160;2023-06-26T04:05:43;99269.53;;;22.56;95.00
26531;BME280;14201;43.188;24.160;2023-06-26T04:08:09;99262.38;;;22.63;95.56
26531;BME280;14201;43.188;24.160;2023-06-26T04:10:34;99264.22;;;22.56;95.94
26531;BME280;14201;43.188;24.160;2023-06-26T04:13:01;99260.69;;;22.56;96.68
26531;BME280;14201;43.188;24.160;2023-06-26T04:15:27;99267.69;;;22.63;97.43
26531;BME280;14201;43.188;24.160;2023-06-26T04:17:52;99269.59;;;22.53;96.97
26531;BME280;14201;43.188;24.160;2023-06-26T04:20:18;99269.50;;;22.58;96.98
26531;BME280;14201;43.188;24.160;2023-06-26T04:22:44;99269.50;;;22.59;96.47
26531;BME280;14201;43.188;24.160;2023-06-26T04:25:09;99266.84;;;22.61;96.39
26531;BME280;14201;43.188;24.160;2023-06-26T04:27:37;99270.44;;;22.57;94.83
26531;BME280;14201;43.188;24.160;2023-06-26T04:30:03;99282.88;;;22.52;95.93
26531;BME280;14201;43.188;24.160;2023-06-26T04:32:30;99277.56;;;22.50;96.57
26531;BME280;14201;43.188;24.160;2023-06-26T04:34:56;99267.03;;;22.46;98.02
26531;BME280;14201;43.188;24.160;2023-06-26T04:37:22;99272.22;;;22.55;98.12
26531;BME280;14201;43.188;24.160;2023-06-26T04:39:47;99278.31;;;22.63;96.07
26531;BME280;14201;43.188;24.160;2023-06-26T04:42:13;99278.22;;;22.69;94.39
26531;BME280;14201;43.188;24.160;2023-06-26T04:44:38;99276.50;;;22.68;94.85
26531;BME280;14201;43.188;24.160;2023-06-26T04:47:06;99279.00;;;22.76;97.03
26531;BME280;14201;43.188;24.160;2023-06-26T04:49:32;99279.06;;;22.73;97.03
26531;BME280;14201;43.188;24.160;2023-06-26T04:51:57;99286.13;;;22.74;93.54
26531;BME280;14201;43.188;24.160;2023-06-26T04:54:25;99285.31;;;22.70;93.98
26531;BME280;14201;43.188;24.160;2023-06-26T04:56:51;99283.53;;;22.69;93.17
26531;BME280;14201;43.188;24.160;2023-06-26T04:59:16;99291.56;;;22.65;94.82
26531;BME280;14201;43.188;24.160;2023-06-26T05:01:42;99294.19;;;22.66;94.73
26531;BME280;14201;43.188;24.160;2023-06-26T05:04:14;99294.09;;;22.74;94.35
26531;BME280;14201;43.188;24.160;2023-06-26T05:06:43;99290.53;;;22.76;94.85
26531;BME280;14201;43.188;24.160;2023-06-26T05:09:09;99301.06;;;22.83;93.11
26531;BME280;14201;43.188;24.160;2023-06-26T05:11:36;99298.44;;;22.81;92.00
26531;BME280;14201;43.188;24.160;2023-06-26T05:14:02;99310.72;;;22.90;91.62
26531;BME280;14201;43.188;24.160;2023-06-26T05:16:27;99314.16;;;22.96;91.70
26531;BME280;14201;43.188;24.160;2023-06-26T05:18:53;99306.13;;;23.03;91.62
26531;BME280;14201;43.188;24.160;2023-06-26T05:21:20;99317.69;;;22.97;92.31
26531;BME280;14201;43.188;24.160;2023-06-26T05:23:46;99310.50;;;23.07;91.04
26531;BME280;14201;43.188;24.160;2023-06-26T05:26:12;99314.91;;;23.09;90.14
26531;BME280;14201;43.188;24.160;2023-06-26T05:28:39;99313.97;;;23.13;90.77
26531;BME280;14201;43.188;24.160;2023-06-26T05:31:04;99317.53;;;23.11;90.56
26531;BME280;14201;43.188;24.160;2023-06-26T05:33:31;99310.50;;;23.08;91.54
26531;BME280;14201;43.188;24.160;2023-06-26T05:35:57;99306.94;;;23.09;90.53
26531;BME280;14201;43.188;24.160;2023-06-26T05:38:24;99313.16;;;23.08;90.64
26531;BME280;14201;43.188;24.160;2023-06-26T05:40:50;99320.28;;;23.05;90.27
26531;BME280;14201;43.188;24.160;2023-06-26T05:43:16;99314.94;;;23.06;90.13
26531;BME280;14201;43.188;24.160;2023-06-26T05:45:48;99319.28;;;23.13;89.40
26531;BME280;14201;43.188;24.160;2023-06-26T05:48:14;99320.22;;;23.09;88.28
26531;BME280;14201;43.188;24.160;2023-06-26T05:50:40;99318.34;;;23.17;86.93
26531;BME280;14201;43.188;24.160;2023-06-26T05:53:07;99321.03;;;23.14;88.09
26531;BME280;14201;43.188;24.160;2023-06-26T05:55:33;99323.06;;;22.94;88.80
26531;BME280;14201;43.188;24.160;2023-06-26T05:57:59;99328.31;;;22.98;88.91
26531;BME280;14201;43.188;24.160;2023-06-26T06:00:27;99324.72;;;23.04;89.04
26531;BME280;14201;43.188;24.160;2023-06-26T06:02:53;99333.44;;;23.14;88.09
26531;BME280;14201;43.188;24.160;2023-06-26T06:05:20;99328.97;;;23.19;88.32
26531;BME280;14201;43.188;24.160;2023-06-26T06:07:46;99327.25;;;23.13;87.33
26531;BME280;14201;43.188;24.160;2023-06-26T06:10:12;99330.94;;;23.00;88.17
26531;BME280;14201;43.188;24.160;2023-06-26T06:12:38;99328.22;;;23.09;88.48
26531;BME280;14201;43.188;24.160;2023-06-26T06:15:05;99318.53;;;23.02;87.99
26531;BME280;14201;43.188;24.160;2023-06-26T06:17:31;99322.84;;;23.11;88.23
26531;BME280;14201;43.188;24.160;2023-06-26T06:19:56;99322.03;;;23.07;88.22
26531;BME280;14201;43.188;24.160;2023-06-26T06:22:22;99318.53;;;23.02;88.30
26531;BME280;14201;43.188;24.160;2023-06-26T06:24:50;99323.84;;;23.05;88.70
26531;BME280;14201;43.188;24.160;2023-06-26T06:27:17;99319.47;;;22.98;88.82
26531;BME280;14201;43.188;24.160;2023-06-26T06:29:42;99321.28;;;22.94;89.08
26531;BME280;14201;43.188;24.160;2023-06-26T06:32:08;99315.03;;;22.98;88.96
26531;BME280;14201;43.188;24.160;2023-06-26T06:34:34;99307.06;;;22.98;88.74
26531;BME280;14201;43.188;24.160;2023-06-26T06:37:00;99324.66;;;23.09;88.35
26531;BME280;14201;43.188;24.160;2023-06-26T06:39:25;99318.44;;;23.10;89.06
26531;BME280;14201;43.188;24.160;2023-06-26T06:41:51;99320.19;;;23.12;88.92
26531;BME280;14201;43.188;24.160;2023-06-26T06:44:17;99325.41;;;23.18;89.27
26531;BME280;14201;43.188;24.160;2023-06-26T06:46:42;99320.91;;;23.22;89.53
26531;BME280;14201;43.188;24.160;2023-06-26T06:49:09;99318.25;;;23.24;88.68
26531;BME280;14201;43.188;24.160;2023-06-26T06:51:34;99327.06;;;23.27;88.52
26531;BME280;14201;43.188;24.160;2023-06-26T06:54:00;99325.34;;;23.25;90.42
26531;BME280;14201;43.188;24.160;2023-06-26T06:56:26;99307.53;;;23.28;89.17
26531;BME280;14201;43.188;24.160;2023-06-26T06:58:52;99325.03;;;23.45;90.12
26531;BME280;14201;43.188;24.160;2023-06-26T07:01:17;99326.63;;;23.56;89.12
26531;BME280;14201;43.188;24.160;2023-06-26T07:03:43;99331.84;;;23.63;89.58
26531;BME280;14201;43.188;24.160;2023-06-26T07:06:08;99329.06;;;23.69;88.46
26531;BME280;14201;43.188;24.160;2023-06-26T07:08:34;99324.47;;;23.82;88.48
26531;BME280;14201;43.188;24.160;2023-06-26T07:11:00;99321.44;;;24.02;88.79
26531;BME280;14201;43.188;24.160;2023-06-26T07:13:26;99325.66;;;24.15;88.29
26531;BME280;14201;43.188;24.160;2023-06-26T07:15:52;99322.94;;;24.20;87.83
26531;BME280;14201;43.188;24.160;2023-06-26T07:18:18;99327.16;;;24.31;86.76
26531;BME280;14201;43.188;24.160;2023-06-26T07:20:43;99328.97;;;24.29;85.50
26531;BME280;14201;43.188;24.160;2023-06-26T07:23:09;99325.75;;;24.10;84.32
26531;BME280;14201;43.188;24.160;2023-06-26T07:25:35;99325.66;;;24.15;85.41
26531;BME280;14201;43.188;24.160;2023-06-26T07:28:01;99330.78;;;24.26;85.54
26531;BME280;14201;43.188;24.160;2023-06-26T07:30:26;99330.69;;;24.30;84.77
26531;BME280;14201;43.188;24.160;2023-06-26T07:32:52;99324.97;;;24.53;85.97
26531;BME280;14201;43.188;24.160;2023-06-26T07:35:18;99333.38;;;24.75;83.56
26531;BME280;14201;43.188;24.160;2023-06-26T07:37:44;99340.97;;;24.97;83.44
26531;BME280;14201;43.188;24.160;2023-06-26T07:40:10;99335.47;;;25.05;80.79
26531;BME280;14201;43.188;24.160;2023-06-26T07:42:36;99329.00;;;25.15;80.14
26531;BME280;14201;43.188;24.160;2023-06-26T07:45:02;99334.75;;;25.37;81.94
26531;BME280;14201;43.188;24.160;2023-06-26T07:47:35;99334.59;;;25.43;80.82
26531;BME280;14201;43.188;24.160;2023-06-26T07:50:01;99342.84;;;25.71;80.33
26531;BME280;14201;43.188;24.160;2023-06-26T07:52:26;99340.25;;;26.06;82.10
26531;BME280;14201;43.188;24.160;2023-06-26T07:54:52;99336.91;;;26.30;78.71
26531;BME280;14201;43.188;24.160;2023-06-26T07:57:18;99345.59;;;26.39;76.01
26531;BME280;14201;43.188;24.160;2023-06-26T07:59:43;99349.13;;;26.06;74.47
26531;BME280;14201;43.188;24.160;2023-06-26T08:02:09;99355.50;;;26.01;75.13
26531;BME280;14201;43.188;24.160;2023-06-26T08:04:34;99352.16;;;25.92;75.28
26531;BME280;14201;43.188;24.160;2023-06-26T08:07:01;99350.59;;;26.18;79.61
26531;BME280;14201;43.188;24.160;2023-06-26T08:09:28;99352.47;;;26.47;75.74
26531;BME280;14201;43.188;24.160;2023-06-26T08:11:54;99347.56;;;26.65;73.35
26531;BME280;14201;43.188;24.160;2023-06-26T08:14:20;99342.81;;;26.76;74.41
26531;BME280;14201;43.188;24.160;2023-06-26T08:16:46;99347.09;;;27.11;72.24
26531;BME280;14201;43.188;24.160;2023-06-26T08:19:14;99340.00;;;27.40;71.98
26531;BME280;14201;43.188;24.160;2023-06-26T08:21:44;99345.13;;;27.76;70.50
26531;BME280;14201;43.188;24.160;2023-06-26T08:24:10;99336.69;;;28.15;69.78
26531;BME280;14201;43.188;24.160;2023-06-26T08:26:36;99332.53;;;28.32;70.89
26531;BME280;14201;43.188;24.160;2023-06-26T08:29:02;99333.50;;;28.56;67.56
26531;BME280;14201;43.188;24.160;2023-06-26T08:31:35;99336.97;;;28.83;69.49
26531;BME280;14201;43.188;24.160;2023-06-26T08:34:02;99339.03;;;28.98;67.10
26531;BME280;14201;43.188;24.160;2023-06-26T08:36:28;99337.88;;;29.29;66.91
26531;BME280;14201;43.188;24.160;2023-06-26T08:38:54;99333.00;;;29.62;65.72
26531;BME280;14201;43.188;24.160;2023-06-26T08:41:19;99333.13;;;29.81;61.62
26531;BME280;14201;43.188;24.160;2023-06-26T08:43:46;99325.81;;;29.63;60.37
26531;BME280;14201;43.188;24.160;2023-06-26T08:46:14;99325.47;;;29.49;61.15
26531;BME280;14201;43.188;24.160;2023-06-26T08:48:41;99333.34;;;29.31;62.02
26531;BME280;14201;43.188;24.160;2023-06-26T08:51:12;99330.91;;;29.25;63.61
26531;BME280;14201;43.188;24.160;2023-06-26T08:53:46;99328.09;;;29.28;62.74
26531;BME280;14201;43.188;24.160;2023-06-26T08:56:17;99325.13;;;29.36;63.21
26531;BME280;14201;43.188;24.160;2023-06-26T08:58:44;99326.66;;;29.63;63.39
26531;BME280;14201;43.188;24.160;2023-06-26T09:01:10;99322.75;;;29.94;61.99
26531;BME280;14201;43.188;24.160;2023-06-26T09:03:36;99329.44;;;29.84;60.71
26531;BME280;14201;43.188;24.160;2023-06-26T09:06:02;99330.28;;;29.18;59.90
26531;BME280;14201;43.188;24.160;2023-06-26T09:08:28;99304.78;;;29.06;59.64
26531;BME280;14201;43.188;24.160;2023-06-26T09:10:53;99321.03;;;28.78;60.12
26531;BME280;14201;43.188;24.160;2023-06-26T09:13:19;99318.78;;;28.67;60.45
26531;BME280;14201;43.188;24.160;2023-06-26T09:15:45;99314.50;;;28.37;61.57
26531;BME280;14201;43.188;24.160;2023-06-26T09:18:12;99325.97;;;28.15;61.88
26531;BME280;14201;43.188;24.160;2023-06-26T09:20:38;99322.31;;;27.91;61.69
26531;BME280;14201;43.188;24.160;2023-06-26T09:23:04;99318.75;;;27.92;61.98
26531;BME280;14201;43.188;24.160;2023-06-26T09:25:30;99316.00;;;27.94;62.88
26531;BME280;14201;43.188;24.160;2023-06-26T09:27:56;99317.75;;;27.95;64.73
26531;BME280;14201;43.188;24.160;2023-06-26T09:30:22;99317.31;;;27.80;65.49
26531;BME280;14201;43.188;24.160;2023-06-26T09:32:48;99317.44;;;27.49;69.46
26531;BME280;14201;43.188;24.160;2023-06-26T09:35:16;99316.22;;;27.01;70.46
26531;BME280;14201;43.188;24.160;2023-06-26T09:37:42;99315.66;;;26.90;70.70
26531;BME280;14201;43.188;24.160;2023-06-26T09:40:09;99317.25;;;26.97;71.35
26531;BME280;14201;43.188;24.160;2023-06-26T09:42:35;99315.50;;;27.26;72.47
26531;BME280;14201;43.188;24.160;2023-06-26T09:45:01;99312.44;;;27.38;71.24
26531;BME280;14201;43.188;24.160;2023-06-26T09:47:30;99312.03;;;27.22;71.35
26531;BME280;14201;43.188;24.160;2023-06-26T09:49:57;99300.00;;;27.07;71.77
26531;BME280;14201;43.188;24.160;2023-06-26T09:52:26;99303.84;;;26.99;70.81
26531;BME280;14201;43.188;24.160;2023-06-26T09:55:07;99307.72;;;26.56;73.81
26531;BME280;14201;43.188;24.160;2023-06-26T09:57:34;99311.00;;;26.97;71.49
26531;BME280;14201;43.188;24.160;2023-06-26T10:00:02;99302.16;;;26.95;73.85
26531;BME280;14201;43.188;24.160;2023-06-26T10:02:28;99295.44;;;26.81;70.86
26531;BME280;14201;43.188;24.160;2023-06-26T10:04:53;99299.72;;;27.17;73.02
26531;BME280;14201;43.188;24.160;2023-06-26T10:07:20;99293.63;;;27.11;71.48
26531;BME280;14201;43.188;24.160;2023-06-26T10:09:46;99291.19;;;27.04;72.23
26531;BME280;14201;43.188;24.160;2023-06-26T10:12:40;99289.19;;;27.40;72.23
26531;BME280;14201;43.188;24.160;2023-06-26T10:15:08;99291.63;;;27.48;72.55
26531;BME280;14201;43.188;24.160;2023-06-26T10:17:38;99307.41;;;27.56;70.96
26531;BME280;14201;43.188;24.160;2023-06-26T10:20:08;99299.84;;;27.42;70.36
26531;BME280;14201;43.188;24.160;2023-06-26T10:22:41;99310.38;;;27.46;71.78
26531;BME280;14201;43.188;24.160;2023-06-26T10:25:09;99305.66;;;27.55;70.86
26531;BME280;14201;43.188;24.160;2023-06-26T10:27:41;99304.75;;;27.56;71.36
26531;BME280;14201;43.188;24.160;2023-06-26T10:30:14;99295.94;;;26.64;72.58
26531;BME280;14201;43.188;24.160;2023-06-26T10:32:42;99300.56;;;25.90;77.61
26531;BME280;14201;43.188;24.160;2023-06-26T10:35:10;99303.72;;;24.94;79.26
26531;BME280;14201;43.188;24.160;2023-06-26T10:37:47;99295.50;;;24.63;77.65
26531;BME280;14201;43.188;24.160;2023-06-26T10:40:17;99309.94;;;24.93;76.41
26531;BME280;14201;43.188;24.160;2023-06-26T10:42:46;99319.94;;;25.24;81.83
26531;BME280;14201;43.188;24.160;2023-06-26T10:45:20;99317.91;;;25.35;81.69
26531;BME280;14201;43.188;24.160;2023-06-26T10:47:48;99304.88;;;24.81;81.78
26531;BME280;14201;43.188;24.160;2023-06-26T10:53:14;99318.66;;;25.01;82.39
26531;BME280;14201;43.188;24.160;2023-06-26T10:55:51;99306.84;;;24.71;83.82
26531;BME280;14201;43.188;24.160;2023-06-26T10:58:33;99298.31;;;24.55;86.00
26531;BME280;14201;43.188;24.160;2023-06-26T11:01:19;99295.53;;;24.60;87.88
26531;BME280;14201;43.188;24.160;2023-06-26T11:06:23;99288.38;;;24.63;83.76
26531;BME280;14201;43.188;24.160;2023-06-26T11:08:51;99286.97;;;24.42;84.97
26531;BME280;14201;43.188;24.160;2023-06-26T11:11:19;99282.34;;;24.55;83.91
26531;BME280;14201;43.188;24.160;2023-06-26T11:13:46;99286.47;;;24.70;85.38
26531;BME280;14201;43.188;24.160;2023-06-26T11:16:13;99282.59;;;24.85;84.09
26531;BME280;14201;43.188;24.160;2023-06-26T11:18:40;99279.03;;;24.86;86.06
26531;BME280;14201;43.188;24.160;2023-06-26T11:21:10;99282.84;;;25.13;90.21
26531;BME280;14201;43.188;24.160;2023-06-26T11:23:39;99279.09;;;25.22;89.13
26531;BME280;14201;43.188;24.160;2023-06-26T11:26:19;99280.56;;;25.37;87.13
26531;BME280;14201;43.188;24.160;2023-06-26T11:28:53;99281.97;;;25.51;85.68
26531;BME280;14201;43.188;24.160;2023-06-26T11:31:37;99297.69;;;25.64;85.85
26531;BME280;14201;43.188;24.160;2023-06-26T11:34:05;99297.47;;;25.71;88.44
26531;BME280;14201;43.188;24.160;2023-06-26T11:36:33;99303.63;;;25.75;85.75
26531;BME280;14201;43.188;24.160;2023-06-26T11:39:03;99306.13;;;25.81;86.43
26531;BME280;14201;43.188;24.160;2023-06-26T11:41:32;99302.81;;;25.71;80.37
26531;BME280;14201;43.188;24.160;2023-06-26T11:44:02;99307.53;;;25.60;76.76
26531;BME280;14201;43.188;24.160;2023-06-26T11:46:28;99306.28;;;25.38;77.10
26531;BME280;14201;43.188;24.160;2023-06-26T11:48:54;99291.56;;;25.23;78.56
26531;BME280;14201;43.188;24.160;2023-06-26T11:51:20;99291.88;;;25.07;78.98
26531;BME280;14201;43.188;24.160;2023-06-26T11:53:46;99290.69;;;25.21;79.86
26531;BME280;14201;43.188;24.160;2023-06-26T11:56:16;99282.94;;;24.68;79.69
26531;BME280;14201;43.188;24.160;2023-06-26T11:58:59;99263.53;;;24.63;81.51
26531;BME280;14201;43.188;24.160;2023-06-26T12:01:36;99277.19;;;24.88;83.25
26531;BME280;14201;43.188;24.160;2023-06-26T12:04:04;99285.69;;;25.05;81.64
26531;BME280;14201;43.188;24.160;2023-06-26T12:06:32;99288.03;;;25.19;81.10
26531;BME280;14201;43.188;24.160;2023-06-26T12:09:00;99295.91;;;25.25;78.56
26531;BME280;14201;43.188;24.160;2023-06-26T12:11:29;99300.28;;;25.28;82.35
26531;BME280;14201;43.188;24.160;2023-06-26T12:13:55;99292.25;;;25.31;84.40
26531;BME280;14201;43.188;24.160;2023-06-26T12:16:21;99290.44;;;25.31;87.56
26531;BME280;14201;43.188;24.160;2023-06-26T12:18:47;99294.84;;;25.34;81.34
26531;BME280;14201;43.188;24.160;2023-06-26T12:24:08;99280.09;;;25.55;86.06
26531;BME280;14201;43.188;24.160;2023-06-26T12:26:34;99293.88;;;25.72;83.91
26531;BME280;14201;43.188;24.160;2023-06-26T12:29:04;99290.81;;;25.88;85.94
26531;BME280;14201;43.188;24.160;2023-06-26T12:31:31;99303.78;;;26.05;81.46
26531;BME280;14201;43.188;24.160;2023-06-26T12:33:59;99301.88;;;26.10;80.83
26531;BME280;14201;43.188;24.160;2023-06-26T12:36:25;99305.13;;;26.21;79.60
26531;BME280;14201;43.188;24.160;2023-06-26T12:38:53;99317.47;;;26.25;78.72
26531;BME280;14201;43.188;24.160;2023-06-26T12:41:19;99317.06;;;26.41;77.64
26531;BME280;14201;43.188;24.160;2023-06-26T12:43:46;99317.88;;;26.43;77.48
26531;BME280;14201;43.188;24.160;2023-06-26T12:46:12;99322.66;;;25.97;75.42
26531;BME280;14201;43.188;24.160;2023-06-26T12:48:39;99318.53;;;25.82;78.33
26531;BME280;14201;43.188;24.160;2023-06-26T12:51:15;99307.88;;;25.82;79.39
26531;BME280;14201;43.188;24.160;2023-06-26T12:53:41;99305.38;;;25.40;82.56
26531;BME280;14201;43.188;24.160;2023-06-26T12:56:10;99319.22;;;25.15;84.71
26531;BME280;14201;43.188;24.160;2023-06-26T12:58:37;99313.78;;;24.80;86.68
26531;BME280;14201;43.188;24.160;2023-06-26T13:01:04;99297.72;;;24.39;82.29
26531;BME280;14201;43.188;24.160;2023-06-26T13:03:31;99296.06;;;24.32;87.17